sensor_id;sensor_type;location;lat;lon;timestamp;P1;durP1;ratioP1;P2;durP2;ratioP2
8714;SDS011;4394;51.208;8.904;2022-07-21T00:02:26;11.40;;;9.17;;
8714;SDS011;4394;51.208;8.904;2022-07-21T00:05:16;11.67;;;9.57;;
8714;SDS011;4394;51.208;8.904;2022-07-21T00:08:04;14.77;;;9.47;;
8714;SDS011;4394;51.208;8.904;2022-07-21T00:10:52;15.10;;;11.00;;
8714;SDS011;4394;51.208;8.904;2022-07-21T00:13:41;11.40;;;10.20;;
8714;SDS011;4394;51.208;8.904;2022-07-21T00:16:29;12.33;;;9.37;;
8714;SDS011;4394;51.208;8.904;2022-07-21T00:19:17;11.93;;;10.13;;
8714;SDS011;4394;51.208;8.904;2022-07-21T00:22:06;12.33;;;9.63;;
8714;SDS011;4394;51.208;8.904;2022-07-21T00:24:54;11.43;;;9.23;;
8714;SDS011;4394;51.208;8.904;2022-07-21T00:27:42;15.97;;;10.33;;
8714;SDS011;4394;51.208;8.904;2022-07-21T00:30:31;13.07;;;9.80;;
8714;SDS011;4394;51.208;8.904;2022-07-21T00:33:19;11.43;;;9.83;;
8714;SDS011;4394;51.208;8.904;2022-07-21T00:36:07;14.03;;;10.40;;
8714;SDS011;4394;51.208;8.904;2022-07-21T00:38:56;12.13;;;10.47;;
8714;SDS011;4394;51.208;8.904;2022-07-21T00:41:45;13.30;;;9.97;;
8714;SDS011;4394;51.208;8.904;2022-07-21T00:44:33;13.40;;;9.73;;
8714;SDS011;4394;51.208;8.904;2022-07-21T00:47:21;13.33;;;9.60;;
8714;SDS011;4394;51.208;8.904;2022-07-21T00:50:11;11.43;;;9.10;;
8714;SDS011;4394;51.208;8.904;2022-07-21T00:53:01;14.20;;;9.70;;
8714;SDS011;4394;51.208;8.904;2022-07-21T00:55:50;12.27;;;9.90;;
8714;SDS011;4394;51.208;8.904;2022-07-21T00:58:39;10.97;;;9.57;;
8714;SDS011;4394;51.208;8.904;2022-07-21T01:01:27;13.53;;;9.80;;
8714;SDS011;4394;51.208;8.904;2022-07-21T01:04:15;12.13;;;10.17;;
8714;SDS011;4394;51.208;8.904;2022-07-21T01:07:04;10.77;;;9.63;;
8714;SDS011;4394;51.208;8.904;2022-07-21T01:09:52;11.67;;;9.90;;
8714;SDS011;4394;51.208;8.904;2022-07-21T01:12:44;11.50;;;9.73;;
8714;SDS011;4394;51.208;8.904;2022-07-21T01:15:32;11.20;;;10.00;;
8714;SDS011;4394;51.208;8.904;2022-07-21T01:18:20;12.40;;;10.27;;
8714;SDS011;4394;51.208;8.904;2022-07-21T01:21:15;12.93;;;10.00;;
8714;SDS011;4394;51.208;8.904;2022-07-21T01:24:17;12.67;;;10.00;;
8714;SDS011;4394;51.208;8.904;2022-07-21T01:27:05;12.83;;;10.10;;
8714;SDS011;4394;51.208;8.904;2022-07-21T01:29:53;13.30;;;9.93;;
8714;SDS011;4394;51.208;8.904;2022-07-21T01:32:41;15.13;;;10.70;;
8714;SDS011;4394;51.208;8.904;2022-07-21T01:35:30;11.30;;;10.00;;
8714;SDS011;4394;51.208;8.904;2022-07-21T01:38:19;11.63;;;9.90;;
8714;SDS011;4394;51.208;8.904;2022-07-21T01:41:25;35.03;;;12.03;;
8714;SDS011;4394;51.208;8.904;2022-07-21T01:44:19;13.30;;;10.60;;
8714;SDS011;4394;51.208;8.904;2022-07-21T01:47:10;13.40;;;11.20;;
8714;SDS011;4394;51.208;8.904;2022-07-21T01:49:58;12.07;;;10.57;;
8714;SDS011;4394;51.208;8.904;2022-07-21T01:52:46;13.77;;;11.00;;
8714;SDS011;4394;51.208;8.904;2022-07-21T01:55:36;13.47;;;11.07;;
8714;SDS011;4394;51.208;8.904;2022-07-21T01:58:24;13.70;;;10.63;;
8714;SDS011;4394;51.208;8.904;2022-07-21T02:01:12;11.77;;;10.47;;
8714;SDS011;4394;51.208;8.904;2022-07-21T02:04:02;13.00;;;11.13;;
8714;SDS011;4394;51.208;8.904;2022-07-21T02:06:51;15.67;;;10.77;;
8714;SDS011;4394;51.208;8.904;2022-07-21T02:09:39;14.10;;;11.40;;
8714;SDS011;4394;51.208;8.904;2022-07-21T02:12:29;12.40;;;11.10;;
8714;SDS011;4394;51.208;8.904;2022-07-21T02:15:17;16.33;;;12.33;;
8714;SDS011;4394;51.208;8.904;2022-07-21T02:18:05;13.00;;;11.60;;
8714;SDS011;4394;51.208;8.904;2022-07-21T02:20:53;13.97;;;11.17;;
8714;SDS011;4394;51.208;8.904;2022-07-21T02:23:41;14.07;;;12.13;;
8714;SDS011;4394;51.208;8.904;2022-07-21T02:26:29;13.83;;;11.43;;
8714;SDS011;4394;51.208;8.904;2022-07-21T02:29:19;12.77;;;11.20;;
8714;SDS011;4394;51.208;8.904;2022-07-21T02:32:06;12.83;;;10.83;;
8714;SDS011;4394;51.208;8.904;2022-07-21T02:34:54;13.53;;;11.70;;
8714;SDS011;4394;51.208;8.904;2022-07-21T02:37:42;14.20;;;12.37;;
8714;SDS011;4394;51.208;8.904;2022-07-21T02:40:30;13.20;;;11.80;;
8714;SDS011;4394;51.208;8.904;2022-07-21T02:43:18;13.70;;;11.80;;
8714;SDS011;4394;51.208;8.904;2022-07-21T02:46:08;13.57;;;11.30;;
8714;SDS011;4394;51.208;8.904;2022-07-21T02:48:56;14.57;;;11.83;;
8714;SDS011;4394;51.208;8.904;2022-07-21T02:51:44;13.10;;;11.60;;
8714;SDS011;4394;51.208;8.904;2022-07-21T02:54:31;15.40;;;12.53;;
8714;SDS011;4394;51.208;8.904;2022-07-21T02:57:19;16.50;;;12.70;;
8714;SDS011;4394;51.208;8.904;2022-07-21T03:00:08;15.50;;;11.90;;
8714;SDS011;4394;51.208;8.904;2022-07-21T03:02:59;15.17;;;11.97;;
8714;SDS011;4394;51.208;8.904;2022-07-21T03:05:47;14.13;;;11.57;;
8714;SDS011;4394;51.208;8.904;2022-07-21T03:08:35;13.47;;;11.57;;
8714;SDS011;4394;51.208;8.904;2022-07-21T03:11:23;11.07;;;9.43;;
8714;SDS011;4394;51.208;8.904;2022-07-21T03:14:11;7.67;;;5.73;;
8714;SDS011;4394;51.208;8.904;2022-07-21T03:16:59;6.20;;;5.50;;
8714;SDS011;4394;51.208;8.904;2022-07-21T03:19:49;6.20;;;4.80;;
8714;SDS011;4394;51.208;8.904;2022-07-21T03:22:37;8.10;;;5.60;;
8714;SDS011;4394;51.208;8.904;2022-07-21T03:25:25;7.43;;;5.90;;
8714;SDS011;4394;51.208;8.904;2022-07-21T03:28:14;6.80;;;5.93;;
8714;SDS011;4394;51.208;8.904;2022-07-21T03:31:03;7.43;;;6.63;;
8714;SDS011;4394;51.208;8.904;2022-07-21T03:33:51;7.57;;;5.97;;
8714;SDS011;4394;51.208;8.904;2022-07-21T03:36:40;6.77;;;6.07;;
8714;SDS011;4394;51.208;8.904;2022-07-21T03:39:28;7.40;;;6.37;;
8714;SDS011;4394;51.208;8.904;2022-07-21T03:42:16;7.27;;;6.57;;
8714;SDS011;4394;51.208;8.904;2022-07-21T03:45:05;7.30;;;6.60;;
8714;SDS011;4394;51.208;8.904;2022-07-21T03:47:54;8.97;;;7.20;;
8714;SDS011;4394;51.208;8.904;2022-07-21T03:50:42;7.97;;;7.10;;
8714;SDS011;4394;51.208;8.904;2022-07-21T03:53:31;7.80;;;7.00;;
8714;SDS011;4394;51.208;8.904;2022-07-21T03:56:19;6.67;;;5.97;;
8714;SDS011;4394;51.208;8.904;2022-07-21T03:59:07;5.70;;;5.07;;
8714;SDS011;4394;51.208;8.904;2022-07-21T04:01:55;6.03;;;5.40;;
8714;SDS011;4394;51.208;8.904;2022-07-21T04:04:43;5.37;;;4.90;;
8714;SDS011;4394;51.208;8.904;2022-07-21T04:07:31;6.97;;;5.07;;
8714;SDS011;4394;51.208;8.904;2022-07-21T04:10:21;5.70;;;4.70;;
8714;SDS011;4394;51.208;8.904;2022-07-21T04:13:13;5.07;;;4.57;;
8714;SDS011;4394;51.208;8.904;2022-07-21T04:16:01;7.20;;;5.43;;
8714;SDS011;4394;51.208;8.904;2022-07-21T04:18:49;5.27;;;4.77;;
8714;SDS011;4394;51.208;8.904;2022-07-21T04:21:37;4.87;;;4.40;;
8714;SDS011;4394;51.208;8.904;2022-07-21T04:24:25;6.30;;;4.70;;
8714;SDS011;4394;51.208;8.904;2022-07-21T04:27:15;5.47;;;4.40;;
8714;SDS011;4394;51.208;8.904;2022-07-21T04:30:03;5.73;;;5.13;;
8714;SDS011;4394;51.208;8.904;2022-07-21T04:32:53;5.80;;;5.20;;
8714;SDS011;4394;51.208;8.904;2022-07-21T04:35:41;5.40;;;4.90;;
8714;SDS011;4394;51.208;8.904;2022-07-21T04:38:29;6.40;;;5.80;;
8714;SDS011;4394;51.208;8.904;2022-07-21T04:41:17;6.27;;;4.90;;
8714;SDS011;4394;51.208;8.904;2022-07-21T04:44:07;6.07;;;4.83;;
8714;SDS011;4394;51.208;8.904;2022-07-21T04:46:55;5.33;;;4.83;;
8714;SDS011;4394;51.208;8.904;2022-07-21T04:49:43;5.97;;;5.30;;
8714;SDS011;4394;51.208;8.904;2022-07-21T04:52:31;5.83;;;5.33;;
8714;SDS011;4394;51.208;8.904;2022-07-21T04:55:19;5.70;;;5.10;;
8714;SDS011;4394;51.208;8.904;2022-07-21T04:58:08;5.83;;;5.23;;
8714;SDS011;4394;51.208;8.904;2022-07-21T05:00:57;5.93;;;5.33;;
8714;SDS011;4394;51.208;8.904;2022-07-21T05:03:45;6.97;;;5.40;;
8714;SDS011;4394;51.208;8.904;2022-07-21T05:06:33;5.93;;;5.43;;
8714;SDS011;4394;51.208;8.904;2022-07-21T05:09:21;7.87;;;6.20;;
8714;SDS011;4394;51.208;8.904;2022-07-21T05:12:09;7.33;;;6.30;;
8714;SDS011;4394;51.208;8.904;2022-07-21T05:14:58;8.43;;;6.07;;
8714;SDS011;4394;51.208;8.904;2022-07-21T05:17:47;8.17;;;6.70;;
8714;SDS011;4394;51.208;8.904;2022-07-21T05:20:35;6.67;;;6.00;;
8714;SDS011;4394;51.208;8.904;2022-07-21T05:23:23;6.17;;;5.67;;
8714;SDS011;4394;51.208;8.904;2022-07-21T05:26:12;7.20;;;6.07;;
8714;SDS011;4394;51.208;8.904;2022-07-21T05:29:01;7.83;;;6.50;;
8714;SDS011;4394;51.208;8.904;2022-07-21T05:31:49;8.53;;;6.50;;
8714;SDS011;4394;51.208;8.904;2022-07-21T05:34:39;7.53;;;6.40;;
8714;SDS011;4394;51.208;8.904;2022-07-21T05:37:27;7.33;;;6.63;;
8714;SDS011;4394;51.208;8.904;2022-07-21T05:40:15;7.80;;;7.07;;
8714;SDS011;4394;51.208;8.904;2022-07-21T05:43:03;9.80;;;8.10;;
8714;SDS011;4394;51.208;8.904;2022-07-21T05:45:52;9.63;;;7.80;;
8714;SDS011;4394;51.208;8.904;2022-07-21T05:48:45;7.90;;;6.83;;
8714;SDS011;4394;51.208;8.904;2022-07-21T05:51:34;7.50;;;6.70;;
8714;SDS011;4394;51.208;8.904;2022-07-21T05:54:23;7.07;;;6.03;;
8714;SDS011;4394;51.208;8.904;2022-07-21T05:57:11;8.03;;;6.40;;
8714;SDS011;4394;51.208;8.904;2022-07-21T05:59:59;7.40;;;5.30;;
8714;SDS011;4394;51.208;8.904;2022-07-21T06:02:47;6.90;;;5.87;;
8714;SDS011;4394;51.208;8.904;2022-07-21T06:05:36;7.97;;;5.80;;
8714;SDS011;4394;51.208;8.904;2022-07-21T06:08:26;7.00;;;5.80;;
8714;SDS011;4394;51.208;8.904;2022-07-21T06:11:15;7.70;;;6.07;;
8714;SDS011;4394;51.208;8.904;2022-07-21T06:14:05;7.20;;;6.50;;
8714;SDS011;4394;51.208;8.904;2022-07-21T06:16:53;7.70;;;6.33;;
8714;SDS011;4394;51.208;8.904;2022-07-21T06:19:41;7.87;;;6.13;;
8714;SDS011;4394;51.208;8.904;2022-07-21T06:22:29;7.17;;;6.33;;
8714;SDS011;4394;51.208;8.904;2022-07-21T06:25:18;8.23;;;6.57;;
8714;SDS011;4394;51.208;8.904;2022-07-21T06:28:07;6.97;;;6.27;;
8714;SDS011;4394;51.208;8.904;2022-07-21T06:30:55;6.93;;;6.20;;
8714;SDS011;4394;51.208;8.904;2022-07-21T06:33:44;7.40;;;6.70;;
8714;SDS011;4394;51.208;8.904;2022-07-21T06:36:31;6.50;;;5.90;;
8714;SDS011;4394;51.208;8.904;2022-07-21T06:39:20;7.00;;;6.33;;
8714;SDS011;4394;51.208;8.904;2022-07-21T06:42:09;7.00;;;6.30;;
8714;SDS011;4394;51.208;8.904;2022-07-21T06:44:58;7.13;;;6.43;;
8714;SDS011;4394;51.208;8.904;2022-07-21T06:47:46;7.37;;;6.43;;
8714;SDS011;4394;51.208;8.904;2022-07-21T06:50:35;6.30;;;5.67;;
8714;SDS011;4394;51.208;8.904;2022-07-21T06:53:24;7.00;;;6.30;;
8714;SDS011;4394;51.208;8.904;2022-07-21T06:56:12;5.80;;;5.30;;
8714;SDS011;4394;51.208;8.904;2022-07-21T06:59:02;7.23;;;6.00;;
8714;SDS011;4394;51.208;8.904;2022-07-21T07:01:50;6.40;;;5.73;;
8714;SDS011;4394;51.208;8.904;2022-07-21T07:04:39;6.13;;;5.40;;
8714;SDS011;4394;51.208;8.904;2022-07-21T07:07:27;6.17;;;5.57;;
8714;SDS011;4394;51.208;8.904;2022-07-21T07:10:16;5.77;;;5.17;;
8714;SDS011;4394;51.208;8.904;2022-07-21T07:13:05;5.77;;;4.93;;
8714;SDS011;4394;51.208;8.904;2022-07-21T07:16:15;6.57;;;5.20;;
8714;SDS011;4394;51.208;8.904;2022-07-21T07:19:03;5.93;;;5.33;;
8714;SDS011;4394;51.208;8.904;2022-07-21T07:21:52;6.70;;;5.10;;
8714;SDS011;4394;51.208;8.904;2022-07-21T07:24:40;6.63;;;5.80;;
8714;SDS011;4394;51.208;8.904;2022-07-21T07:27:28;5.70;;;5.20;;
8714;SDS011;4394;51.208;8.904;2022-07-21T07:30:20;7.67;;;5.53;;
8714;SDS011;4394;51.208;8.904;2022-07-21T07:33:09;5.57;;;5.07;;
8714;SDS011;4394;51.208;8.904;2022-07-21T07:35:58;5.87;;;5.37;;
8714;SDS011;4394;51.208;8.904;2022-07-21T07:38:46;5.80;;;5.20;;
8714;SDS011;4394;51.208;8.904;2022-07-21T07:41:34;6.37;;;5.37;;
8714;SDS011;4394;51.208;8.904;2022-07-21T07:44:23;5.63;;;5.03;;
8714;SDS011;4394;51.208;8.904;2022-07-21T07:47:11;6.30;;;5.80;;
8714;SDS011;4394;51.208;8.904;2022-07-21T07:50:01;6.30;;;4.93;;
8714;SDS011;4394;51.208;8.904;2022-07-21T07:52:51;6.27;;;5.67;;
8714;SDS011;4394;51.208;8.904;2022-07-21T07:55:40;5.83;;;5.23;;
8714;SDS011;4394;51.208;8.904;2022-07-21T07:58:29;6.03;;;5.43;;
8714;SDS011;4394;51.208;8.904;2022-07-21T08:01:16;6.50;;;5.90;;
8714;SDS011;4394;51.208;8.904;2022-07-21T08:04:06;6.30;;;5.70;;
8714;SDS011;4394;51.208;8.904;2022-07-21T08:06:56;6.30;;;5.70;;
8714;SDS011;4394;51.208;8.904;2022-07-21T08:09:52;6.17;;;5.67;;
8714;SDS011;4394;51.208;8.904;2022-07-21T08:13:00;6.03;;;5.43;;
8714;SDS011;4394;51.208;8.904;2022-07-21T08:15:53;7.10;;;5.90;;
8714;SDS011;4394;51.208;8.904;2022-07-21T08:18:42;6.40;;;5.80;;
8714;SDS011;4394;51.208;8.904;2022-07-21T08:21:34;6.13;;;5.53;;
8714;SDS011;4394;51.208;8.904;2022-07-21T08:24:45;6.27;;;5.67;;
8714;SDS011;4394;51.208;8.904;2022-07-21T08:27:34;6.50;;;5.67;;
8714;SDS011;4394;51.208;8.904;2022-07-21T08:30:25;6.20;;;5.60;;
8714;SDS011;4394;51.208;8.904;2022-07-21T08:33:16;6.37;;;5.77;;
8714;SDS011;4394;51.208;8.904;2022-07-21T08:36:04;6.13;;;5.40;;
8714;SDS011;4394;51.208;8.904;2022-07-21T08:38:54;6.83;;;5.67;;
8714;SDS011;4394;51.208;8.904;2022-07-21T08:41:45;12.27;;;7.20;;
8714;SDS011;4394;51.208;8.904;2022-07-21T08:44:37;6.87;;;5.63;;
8714;SDS011;4394;51.208;8.904;2022-07-21T08:47:27;6.57;;;5.57;;
8714;SDS011;4394;51.208;8.904;2022-07-21T08:50:15;6.23;;;5.63;;
8714;SDS011;4394;51.208;8.904;2022-07-21T08:53:04;6.30;;;5.70;;
8714;SDS011;4394;51.208;8.904;2022-07-21T08:55:54;6.43;;;5.73;;
8714;SDS011;4394;51.208;8.904;2022-07-21T08:58:44;6.43;;;5.80;;
8714;SDS011;4394;51.208;8.904;2022-07-21T09:01:33;7.87;;;6.00;;
8714;SDS011;4394;51.208;8.904;2022-07-21T09:04:25;5.90;;;5.40;;
8714;SDS011;4394;51.208;8.904;2022-07-21T09:07:23;7.00;;;6.30;;
8714;SDS011;4394;51.208;8.904;2022-07-21T09:10:12;6.43;;;5.50;;
8714;SDS011;4394;51.208;8.904;2022-07-21T09:13:02;5.97;;;5.43;;
8714;SDS011;4394;51.208;8.904;2022-07-21T09:15:54;6.53;;;5.83;;
8714;SDS011;4394;51.208;8.904;2022-07-21T09:18:47;6.10;;;5.53;;
8714;SDS011;4394;51.208;8.904;2022-07-21T09:21:37;6.00;;;5.40;;
8714;SDS011;4394;51.208;8.904;2022-07-21T09:24:27;5.83;;;5.20;;
8714;SDS011;4394;51.208;8.904;2022-07-21T09:27:18;6.17;;;5.57;;
8714;SDS011;4394;51.208;8.904;2022-07-21T09:30:09;5.43;;;4.90;;
8714;SDS011;4394;51.208;8.904;2022-07-21T09:32:59;6.57;;;5.90;;
8714;SDS011;4394;51.208;8.904;2022-07-21T09:36:06;5.60;;;5.00;;
8714;SDS011;4394;51.208;8.904;2022-07-21T09:38:56;5.87;;;5.27;;
8714;SDS011;4394;51.208;8.904;2022-07-21T09:41:45;5.77;;;5.17;;
8714;SDS011;4394;51.208;8.904;2022-07-21T09:44:33;5.90;;;5.23;;
8714;SDS011;4394;51.208;8.904;2022-07-21T09:47:23;6.03;;;5.53;;
8714;SDS011;4394;51.208;8.904;2022-07-21T09:50:16;5.93;;;5.30;;
8714;SDS011;4394;51.208;8.904;2022-07-21T09:53:11;5.23;;;4.73;;
8714;SDS011;4394;51.208;8.904;2022-07-21T09:55:59;5.13;;;4.73;;
8714;SDS011;4394;51.208;8.904;2022-07-21T09:58:49;5.70;;;4.73;;
8714;SDS011;4394;51.208;8.904;2022-07-21T10:01:40;7.37;;;5.17;;
8714;SDS011;4394;51.208;8.904;2022-07-21T10:04:29;5.73;;;5.20;;
8714;SDS011;4394;51.208;8.904;2022-07-21T10:07:42;5.27;;;4.77;;
8714;SDS011;4394;51.208;8.904;2022-07-21T10:10:31;5.30;;;4.80;;
8714;SDS011;4394;51.208;8.904;2022-07-21T10:13:40;4.83;;;4.37;;
8714;SDS011;4394;51.208;8.904;2022-07-21T10:16:29;4.37;;;3.97;;
8714;SDS011;4394;51.208;8.904;2022-07-21T10:19:19;4.90;;;3.90;;
8714;SDS011;4394;51.208;8.904;2022-07-21T10:22:17;4.73;;;3.97;;
8714;SDS011;4394;51.208;8.904;2022-07-21T10:25:12;4.00;;;3.70;;
8714;SDS011;4394;51.208;8.904;2022-07-21T10:28:16;4.07;;;3.77;;
8714;SDS011;4394;51.208;8.904;2022-07-21T10:31:14;4.50;;;3.70;;
8714;SDS011;4394;51.208;8.904;2022-07-21T10:34:04;4.80;;;4.40;;
8714;SDS011;4394;51.208;8.904;2022-07-21T10:36:52;5.33;;;4.53;;
8714;SDS011;4394;51.208;8.904;2022-07-21T10:39:40;4.20;;;3.80;;
8714;SDS011;4394;51.208;8.904;2022-07-21T10:42:30;4.63;;;4.13;;
8714;SDS011;4394;51.208;8.904;2022-07-21T10:45:28;4.80;;;4.13;;
8714;SDS011;4394;51.208;8.904;2022-07-21T10:51:34;4.90;;;4.10;;
8714;SDS011;4394;51.208;8.904;2022-07-21T10:54:24;4.23;;;3.90;;
8714;SDS011;4394;51.208;8.904;2022-07-21T10:57:28;4.40;;;4.00;;
8714;SDS011;4394;51.208;8.904;2022-07-21T11:00:25;3.93;;;3.50;;
8714;SDS011;4394;51.208;8.904;2022-07-21T11:03:19;12.50;;;5.33;;
8714;SDS011;4394;51.208;8.904;2022-07-21T11:06:14;4.00;;;3.70;;
8714;SDS011;4394;51.208;8.904;2022-07-21T11:09:13;4.67;;;3.70;;
8714;SDS011;4394;51.208;8.904;2022-07-21T11:12:03;4.63;;;4.23;;
8714;SDS011;4394;51.208;8.904;2022-07-21T11:14:52;5.00;;;3.80;;
8714;SDS011;4394;51.208;8.904;2022-07-21T11:17:42;4.73;;;3.90;;
8714;SDS011;4394;51.208;8.904;2022-07-21T11:20:31;4.93;;;4.50;;
8714;SDS011;4394;51.208;8.904;2022-07-21T11:23:19;4.67;;;3.83;;
8714;SDS011;4394;51.208;8.904;2022-07-21T11:26:07;4.87;;;4.37;;
8714;SDS011;4394;51.208;8.904;2022-07-21T11:29:03;3.63;;;3.33;;
8714;SDS011;4394;51.208;8.904;2022-07-21T11:31:52;3.93;;;3.37;;
8714;SDS011;4394;51.208;8.904;2022-07-21T11:34:44;4.70;;;4.30;;
8714;SDS011;4394;51.208;8.904;2022-07-21T11:37:34;4.73;;;4.30;;
8714;SDS011;4394;51.208;8.904;2022-07-21T11:40:27;4.07;;;3.77;;
8714;SDS011;4394;51.208;8.904;2022-07-21T11:43:17;4.47;;;4.10;;
8714;SDS011;4394;51.208;8.904;2022-07-21T11:46:05;4.80;;;4.40;;
8714;SDS011;4394;51.208;8.904;2022-07-21T11:49:03;5.67;;;4.37;;
8714;SDS011;4394;51.208;8.904;2022-07-21T11:51:54;5.00;;;4.60;;
8714;SDS011;4394;51.208;8.904;2022-07-21T11:54:44;5.30;;;4.83;;
8714;SDS011;4394;51.208;8.904;2022-07-21T11:57:38;5.27;;;4.63;;
8714;SDS011;4394;51.208;8.904;2022-07-21T12:00:29;5.20;;;4.70;;
8714;SDS011;4394;51.208;8.904;2022-07-21T12:03:17;5.57;;;4.90;;
8714;SDS011;4394;51.208;8.904;2022-07-21T12:06:06;5.17;;;4.67;;
8714;SDS011;4394;51.208;8.904;2022-07-21T12:08:56;5.63;;;4.40;;
8714;SDS011;4394;51.208;8.904;2022-07-21T12:11:45;4.30;;;3.90;;
8714;SDS011;4394;51.208;8.904;2022-07-21T12:14:47;4.40;;;3.50;;
8714;SDS011;4394;51.208;8.904;2022-07-21T12:17:38;3.73;;;3.43;;
8714;SDS011;4394;51.208;8.904;2022-07-21T12:20:29;3.33;;;3.10;;
8714;SDS011;4394;51.208;8.904;2022-07-21T12:23:19;3.30;;;3.10;;
8714;SDS011;4394;51.208;8.904;2022-07-21T12:26:20;3.40;;;3.10;;
8714;SDS011;4394;51.208;8.904;2022-07-21T12:29:09;4.00;;;2.90;;
8714;SDS011;4394;51.208;8.904;2022-07-21T12:31:57;3.40;;;3.10;;
8714;SDS011;4394;51.208;8.904;2022-07-21T12:34:49;3.47;;;3.17;;
8714;SDS011;4394;51.208;8.904;2022-07-21T12:37:54;4.07;;;3.67;;
8714;SDS011;4394;51.208;8.904;2022-07-21T12:40:46;4.03;;;3.73;;
8714;SDS011;4394;51.208;8.904;2022-07-21T12:43:58;4.03;;;3.70;;
8714;SDS011;4394;51.208;8.904;2022-07-21T12:46:47;4.30;;;3.90;;
8714;SDS011;4394;51.208;8.904;2022-07-21T12:49:48;4.13;;;3.73;;
8714;SDS011;4394;51.208;8.904;2022-07-21T12:52:57;3.73;;;3.43;;
8714;SDS011;4394;51.208;8.904;2022-07-21T12:55:45;3.47;;;3.17;;
8714;SDS011;4394;51.208;8.904;2022-07-21T12:58:33;3.57;;;3.23;;
8714;SDS011;4394;51.208;8.904;2022-07-21T13:01:24;4.70;;;3.80;;
8714;SDS011;4394;51.208;8.904;2022-07-21T13:04:13;3.40;;;3.10;;
8714;SDS011;4394;51.208;8.904;2022-07-21T13:07:01;3.33;;;2.77;;
8714;SDS011;4394;51.208;8.904;2022-07-21T13:09:49;3.20;;;2.93;;
8714;SDS011;4394;51.208;8.904;2022-07-21T13:12:37;3.27;;;2.90;;
8714;SDS011;4394;51.208;8.904;2022-07-21T13:15:25;3.20;;;2.70;;
8714;SDS011;4394;51.208;8.904;2022-07-21T13:18:15;2.93;;;2.70;;
8714;SDS011;4394;51.208;8.904;2022-07-21T13:21:03;3.00;;;2.80;;
8714;SDS011;4394;51.208;8.904;2022-07-21T13:23:52;3.23;;;3.03;;
8714;SDS011;4394;51.208;8.904;2022-07-21T13:26:40;3.10;;;2.80;;
8714;SDS011;4394;51.208;8.904;2022-07-21T13:29:28;3.47;;;3.20;;
8714;SDS011;4394;51.208;8.904;2022-07-21T13:32:16;3.77;;;3.40;;
8714;SDS011;4394;51.208;8.904;2022-07-21T13:35:06;4.53;;;3.40;;
8714;SDS011;4394;51.208;8.904;2022-07-21T13:38:13;3.80;;;3.40;;
8714;SDS011;4394;51.208;8.904;2022-07-21T13:41:01;3.80;;;3.17;;
8714;SDS011;4394;51.208;8.904;2022-07-21T13:44:09;3.03;;;2.83;;
8714;SDS011;4394;51.208;8.904;2022-07-21T13:46:57;3.37;;;3.07;;
8714;SDS011;4394;51.208;8.904;2022-07-21T13:49:46;3.70;;;3.40;;
8714;SDS011;4394;51.208;8.904;2022-07-21T13:52:35;3.57;;;3.27;;
8714;SDS011;4394;51.208;8.904;2022-07-21T13:55:24;3.53;;;3.23;;
8714;SDS011;4394;51.208;8.904;2022-07-21T13:58:11;3.60;;;3.30;;
8714;SDS011;4394;51.208;8.904;2022-07-21T14:01:00;3.63;;;3.13;;
8714;SDS011;4394;51.208;8.904;2022-07-21T14:03:49;3.50;;;3.20;;
8714;SDS011;4394;51.208;8.904;2022-07-21T14:06:39;5.23;;;3.73;;
8714;SDS011;4394;51.208;8.904;2022-07-21T14:09:29;4.03;;;3.60;;
8714;SDS011;4394;51.208;8.904;2022-07-21T14:12:17;3.97;;;3.60;;
8714;SDS011;4394;51.208;8.904;2022-07-21T14:15:06;3.63;;;3.33;;
8714;SDS011;4394;51.208;8.904;2022-07-21T14:17:55;3.70;;;3.40;;
8714;SDS011;4394;51.208;8.904;2022-07-21T14:20:43;3.10;;;2.90;;
8714;SDS011;4394;51.208;8.904;2022-07-21T14:23:31;5.20;;;3.53;;
8714;SDS011;4394;51.208;8.904;2022-07-21T14:26:21;3.83;;;3.53;;
8714;SDS011;4394;51.208;8.904;2022-07-21T14:29:09;3.60;;;3.30;;
8714;SDS011;4394;51.208;8.904;2022-07-21T14:31:57;4.87;;;3.70;;
8714;SDS011;4394;51.208;8.904;2022-07-21T14:34:46;4.13;;;3.67;;
8714;SDS011;4394;51.208;8.904;2022-07-21T14:37:33;4.40;;;4.00;;
8714;SDS011;4394;51.208;8.904;2022-07-21T14:40:22;4.10;;;3.70;;
8714;SDS011;4394;51.208;8.904;2022-07-21T14:43:11;4.57;;;3.90;;
8714;SDS011;4394;51.208;8.904;2022-07-21T14:46:00;4.23;;;3.67;;
8714;SDS011;4394;51.208;8.904;2022-07-21T14:48:48;3.93;;;3.60;;
8714;SDS011;4394;51.208;8.904;2022-07-21T14:51:36;4.40;;;4.00;;
8714;SDS011;4394;51.208;8.904;2022-07-21T14:54:24;4.00;;;3.60;;
8714;SDS011;4394;51.208;8.904;2022-07-21T14:57:12;4.67;;;4.27;;
8714;SDS011;4394;51.208;8.904;2022-07-21T15:00:02;4.07;;;3.70;;
8714;SDS011;4394;51.208;8.904;2022-07-21T15:02:52;4.27;;;3.70;;
8714;SDS011;4394;51.208;8.904;2022-07-21T15:05:41;4.77;;;3.80;;
8714;SDS011;4394;51.208;8.904;2022-07-21T15:08:29;4.73;;;4.23;;
8714;SDS011;4394;51.208;8.904;2022-07-21T15:11:17;4.77;;;4.10;;
8714;SDS011;4394;51.208;8.904;2022-07-21T15:14:05;4.60;;;4.20;;
8714;SDS011;4394;51.208;8.904;2022-07-21T15:16:59;4.60;;;4.20;;
8714;SDS011;4394;51.208;8.904;2022-07-21T15:19:47;3.93;;;3.60;;
8714;SDS011;4394;51.208;8.904;2022-07-21T15:22:35;4.50;;;4.10;;
8714;SDS011;4394;51.208;8.904;2022-07-21T15:25:23;4.03;;;3.73;;
8714;SDS011;4394;51.208;8.904;2022-07-21T15:28:12;4.83;;;4.37;;
8714;SDS011;4394;51.208;8.904;2022-07-21T15:31:00;4.37;;;3.97;;
8714;SDS011;4394;51.208;8.904;2022-07-21T15:33:53;4.87;;;4.37;;
8714;SDS011;4394;51.208;8.904;2022-07-21T15:36:42;5.27;;;4.17;;
8714;SDS011;4394;51.208;8.904;2022-07-21T15:39:30;4.90;;;3.83;;
8714;SDS011;4394;51.208;8.904;2022-07-21T15:42:19;4.90;;;3.90;;
8714;SDS011;4394;51.208;8.904;2022-07-21T15:45:07;4.00;;;3.70;;
8714;SDS011;4394;51.208;8.904;2022-07-21T15:47:56;4.40;;;4.00;;
8714;SDS011;4394;51.208;8.904;2022-07-21T15:50:47;4.67;;;4.27;;
8714;SDS011;4394;51.208;8.904;2022-07-21T15:53:35;4.90;;;4.43;;
8714;SDS011;4394;51.208;8.904;2022-07-21T15:56:24;6.40;;;4.80;;
8714;SDS011;4394;51.208;8.904;2022-07-21T15:59:13;5.13;;;4.63;;
8714;SDS011;4394;51.208;8.904;2022-07-21T16:02:19;6.03;;;5.43;;
8714;SDS011;4394;51.208;8.904;2022-07-21T16:05:08;5.67;;;4.90;;
8714;SDS011;4394;51.208;8.904;2022-07-21T16:07:59;5.00;;;4.50;;
8714;SDS011;4394;51.208;8.904;2022-07-21T16:10:48;4.80;;;4.40;;
8714;SDS011;4394;51.208;8.904;2022-07-21T16:13:37;5.53;;;4.93;;
8714;SDS011;4394;51.208;8.904;2022-07-21T16:16:25;6.10;;;4.80;;
8714;SDS011;4394;51.208;8.904;2022-07-21T16:19:18;5.30;;;4.27;;
8714;SDS011;4394;51.208;8.904;2022-07-21T16:22:06;5.07;;;4.67;;
8714;SDS011;4394;51.208;8.904;2022-07-21T16:25:01;4.63;;;4.23;;
8714;SDS011;4394;51.208;8.904;2022-07-21T16:27:51;4.60;;;4.20;;
8714;SDS011;4394;51.208;8.904;2022-07-21T16:30:40;4.50;;;4.10;;
8714;SDS011;4394;51.208;8.904;2022-07-21T16:33:28;4.20;;;3.80;;
8714;SDS011;4394;51.208;8.904;2022-07-21T16:36:17;3.97;;;3.43;;
8714;SDS011;4394;51.208;8.904;2022-07-21T16:39:05;3.73;;;3.43;;
8714;SDS011;4394;51.208;8.904;2022-07-21T16:41:54;5.10;;;3.30;;
8714;SDS011;4394;51.208;8.904;2022-07-21T16:44:43;3.50;;;3.20;;
8714;SDS011;4394;51.208;8.904;2022-07-21T16:47:32;3.37;;;3.07;;
8714;SDS011;4394;51.208;8.904;2022-07-21T16:50:20;3.60;;;3.30;;
8714;SDS011;4394;51.208;8.904;2022-07-21T16:53:08;5.80;;;3.60;;
8714;SDS011;4394;51.208;8.904;2022-07-21T16:55:57;4.20;;;3.60;;
8714;SDS011;4394;51.208;8.904;2022-07-21T16:58:47;5.93;;;3.33;;
8714;SDS011;4394;51.208;8.904;2022-07-21T17:01:36;3.03;;;2.73;;
8714;SDS011;4394;51.208;8.904;2022-07-21T17:04:25;3.53;;;3.23;;
8714;SDS011;4394;51.208;8.904;2022-07-21T17:07:14;3.77;;;3.47;;
8714;SDS011;4394;51.208;8.904;2022-07-21T17:10:04;3.83;;;3.53;;
8714;SDS011;4394;51.208;8.904;2022-07-21T17:12:53;3.50;;;3.20;;
8714;SDS011;4394;51.208;8.904;2022-07-21T17:15:42;3.53;;;3.23;;
8714;SDS011;4394;51.208;8.904;2022-07-21T17:18:30;3.30;;;3.00;;
8714;SDS011;4394;51.208;8.904;2022-07-21T17:21:19;3.30;;;3.00;;
8714;SDS011;4394;51.208;8.904;2022-07-21T17:24:07;6.00;;;3.10;;
8714;SDS011;4394;51.208;8.904;2022-07-21T17:26:58;3.37;;;3.07;;
8714;SDS011;4394;51.208;8.904;2022-07-21T17:29:47;2.90;;;2.70;;
8714;SDS011;4394;51.208;8.904;2022-07-21T17:32:38;2.90;;;2.67;;
8714;SDS011;4394;51.208;8.904;2022-07-21T17:35:27;3.70;;;3.17;;